KRCA/RCA METAR and TAF weather

Enter ICAO airport designator
Station Type Date Time Source
KRCA METAR 2020/01/27 12:56 UTC NOAA

KRCA 271256Z 20008KT 10SM OVC005 M02/M04 A2996 RMK AO2A SLP181 T10251041 $


Station Type Date Time Source
KRCA Decoded METAR 2020/01/27 12:56 UTC NOAA

Ellsworth Air Force Base, SD, United States (KRCA) 44-09N 103-06W
Jan 27, 2020 - 07:56 AM EST / 2020.01.27 1256 UTC
Wind: from the SSW (200 degrees) at 9 MPH (8 KT):0
Visibility: 10 mile(s):0
Sky conditions: overcast
Temperature: 27.5 F (-2.5 C)
Windchill: 19 F (-7 C):1
Dew Point: 24.6 F (-4.1 C)
Relative Humidity: 88%
Pressure (altimeter): 29.96 in. Hg (1014 hPa)
ob: KRCA 271256Z 20008KT 10SM OVC005 M02/M04 A2996 RMK AO2A SLP181 T10251041
cycle: 13

Station Type Date Time Source
KRCA TAF 2020/01/27 12:20 UTC NOAA

TAF
AMD KRCA 271215Z 2712/2817 VRB06KT 9999 OVC006 620063 QNH2998INS
TEMPO 2715/2718 OVC008 620083
BECMG 2718/2719 VRB06KT 9999 OVC015 620153 QNH3000INS
BECMG 2802/2803 VRB06KT 4800 -SN OVC020 620209 QNH3001INS
BECMG 2808/2809 VRB06KT 9999 NSW OVC025 620253 QNH3005INS TX01/2721Z TNM02/2712Z

Example: see airport list